sitespeed.io alexa rank chart, sitespeed.io alexa rank daily changes

sitespeed.io alexa rank chart, sitespeed.io alexa rank daily changes

sitespeed.io
Actual rank:
621 686

RANK HISTORY

Date Rank Diff
2018/01/19 621 686 +2 597
2018/01/18 619 089 +2 779
2018/01/17 616 310 +1 652
2018/01/16 614 658 -15 642
2018/01/15 630 300 +23 081
2018/01/14 607 219 +29 177
2018/01/13 578 042 -14 495
2018/01/12 592 537 -354 271
2018/01/11 946 808 +32 473
2018/01/10 914 335 -7 290
2018/01/09 921 625 +38 729
2018/01/08 882 896 -17 742
2018/01/07 900 638 +41 531
2018/01/06 859 107 +47 293
2018/01/05 811 814 +56 446
2018/01/04 755 368 -3 996
2018/01/03 759 364 -5 091
2018/01/02 764 455 +25 006
2018/01/01 739 449 +15 944
2017/12/31 723 505 +4 835
2017/12/30 718 670 +18 303
2017/12/29 700 367 -14 053
2017/12/28 714 420 +1 311
2017/12/27 713 109 +7 073
2017/12/26 706 036 +15 976
2017/12/25 690 060 +19 811
2017/12/24 670 249 +11 106
2017/12/23 659 143 -21 056
2017/12/22 680 199 -12 595
2017/12/21 692 794 +1 203
2017/12/20 691 591 -40 727
2017/12/19 732 318 +14 395
2017/12/18 717 923 +9 234
2017/12/17 708 689 -8 429
2017/12/16 717 118 -1 937
2017/12/15 719 055 -60 094
2017/12/14 779 149 -82 156
2017/12/13 861 305 +11 408
2017/12/12 849 897 +40 701
2017/12/11 809 196 -9 214
2017/12/10 818 410 +1 257
2017/12/09 817 153 -33 932
2017/12/08 851 085 -18 207
2017/12/07 869 292 -56 484
2017/12/06 925 776 -43 076
2017/12/05 968 852 +14 056
2017/12/04 954 796 +16 768
2017/12/03 938 028 +88 862
2017/12/02 849 166 -42 351
2017/12/01 891 517 +49 213
2017/11/30 842 304 -22 492
2017/11/29 864 796 +252
2017/11/28 864 544 +93 095
2017/11/27 771 449 +120
2017/11/26 771 329 +10 072
2017/11/25 761 257 +21 337
2017/11/24 739 920 -7 156
2017/11/23 747 076 -4 008
2017/11/22 751 084 +16 645
2017/11/21 734 439 -124
2017/11/20 734 563

WIDGET FOR YOUR SITE

DOMAINS WITH THE NEAREST RANK

Domain Rank
telcomsystemsgsm.com 621 681
gpgstore.ir 621 682
ambato.gob.ec 621 683
rombica.ru 621 684
dev-metal.com 621 685
sitespeed.io 621 686
earthkind.com 621 687
ltbfeodgorthoboric.review 621 688
nsna.org 621 689
raceofchampions.com 621 690
synergyamps.com 621 691

DOMAINS WITH THE NEAREST RANK BY TLD .io

Domain Rank
radyodinle.io 620 891
likium.io 620 965
txproject.io 621 055
amft.io 621 082
zbt.io 621 310
sitespeed.io 621 686
bluerain.io 622 425
bithax.io 622 448
msm.io 622 893
kikou.io 622 975
utm.io 622 989